Latest Coastal Weather Observations for Gladstone

IDQ60701

Issued at 6:31 am EST Tuesday 3 March 2015 (issued every 10 minutes, with the page automatically refreshed every 10 minutes)

About coastal observations | Map of coastal stations | Coastal observations for QLD | Marine services | Other Formats
Station Details ID: 039123 Name: GLADSTONE RADAR Lat: -23.86 Lon: 151.26 Height: 74.5 m
Data from the previous 72 hours. | See also: Recent months at Gladstone
Date/Time
EST
Temp

°C
Wind Pressure Rain
since 9am
mm
Weather Cloud Vis
km
Sea
Height
m
Swell
Dir
 
Speed
knots
Gust
knots
hPa Trend Height
m
Period
s
Dir
03/06:30am 23.6 SSE 8 12 1012.8 - 0.0 - - - - - - -
03/06:00am 23.1 SE 9 16 1012.6 - 0.0 - - - - - - -
03/05:30am 23.1 SSE 9 13 1012.4 - 0.0 - - - - - - -
03/05:00am 23.1 SSE 7 12 1012.2 - 0.0 - - - - - - -
03/04:30am 23.0 SSE 8 12 1012.0 - 0.0 - - - - - - -
03/04:00am 23.2 SSE 8 13 1012.0 - 0.0 - - - - - - -
03/03:30am 23.2 SE 7 11 1012.1 - 0.0 - - - - - - -
03/03:00am 23.5 SE 9 13 1011.9 - 0.0 - - - - - - -
03/02:30am 23.6 SE 10 14 1011.9 - 0.0 - - - - - - -
03/02:00am 23.7 SSE 9 14 1012.3 - 0.0 - - - - - - -
03/01:30am 23.7 SSE 9 15 1012.3 - 0.0 - - - - - - -
03/01:00am 24.3 SE 11 17 1012.3 - 0.0 - - - - - - -
03/12:30am 24.4 SE 8 12 1012.5 - 0.0 - - - - - - -
03/12:00am 24.6 SE 7 13 1012.9 - 0.0 - - - - - - -
 
Date/Time
EST
Temp

°C
Wind Pressure Rain
since 9am
mm
Weather Cloud Vis
km
Sea
Height
m
Swell
Dir
 
Speed
knots
Gust
knots
hPa Trend Height
m
Period
s
Dir
02/11:30pm 25.0 ESE 11 19 1012.7 - 0.0 - - - - - - -
02/11:00pm 25.3 ESE 12 20 1012.7 - 0.0 - - - - - - -
02/10:30pm 25.4 ESE 13 24 1012.7 - 0.0 - - - - - - -
02/10:00pm 25.8 ESE 15 22 1012.6 - 0.0 - - - - - - -
02/09:30pm 26.1 ESE 18 27 1012.2 - 0.0 - - - - - - -
02/09:19pm 26.2 ESE 16 26 1012.2 - 0.0 - - - - - - -
02/09:00pm 26.2 E 16 23 1012.1 - 0.0 - - - - - - -
02/08:30pm 26.5 E 16 26 1011.7 - 0.0 - - - - - - -
02/08:20pm 26.4 E 17 27 1011.7 - 0.0 - - - - - - -
02/08:00pm 26.5 E 20 27 1011.5 - 0.0 - - - - - - -
02/07:30pm 26.4 E 16 21 1011.1 - 0.0 - - - - - - -
02/07:00pm 26.5 E 17 23 1010.7 - 0.0 - - - - - - -
02/06:30pm 26.7 E 14 23 1010.5 - 0.0 - - - - - - -
02/06:00pm 26.7 E 15 20 1010.2 - 0.0 - - - - - - -
02/05:30pm 26.4 E 14 20 1009.8 - 0.0 - - - - - - -
02/05:00pm 27.3 E 17 23 1009.3 - 0.0 - - - - - - -
02/04:30pm 27.9 E 15 22 1009.1 - 0.0 - - - - - - -
02/04:00pm 28.3 E 15 21 1008.6 - 0.0 - - - - - - -
02/03:30pm 30.6 ENE 15 21 1008.5 - 0.0 - - - - - - -
02/03:00pm 30.6 ENE 14 19 1008.5 - 0.0 - - - - - - -
02/02:30pm 30.7 ENE 12 18 1008.7 - 0.0 - - - - - - -
02/02:00pm 31.1 ENE 13 18 1009.0 - 0.0 - - - - - - -
02/01:30pm 31.7 ENE 11 15 1009.3 - 0.0 - - - - - - -
02/01:00pm 32.4 ENE 9 14 1009.7 - 0.0 - - - - - - -
02/12:30pm 32.9 ENE 11 16 1010.0 - 0.0 - - - - - - -
02/12:00pm 32.6 ENE 10 14 1010.3 - 0.0 - - - - - - -
02/11:30am 32.0 ENE 10 15 1010.6 - 0.0 - - - - - - -
02/11:00am 31.6 NE 6 9 1011.0 - 0.0 - - - - - - -
02/10:30am 31.1 NE 6 10 1011.1 - 0.0 - - - - - - -
02/10:00am 30.2 NE 3 6 1011.3 - 0.0 - - - - - - -
02/09:30am 28.3 CALM 0 0 1011.4 - 0.0 - - - - - - -
02/09:00am 28.9 ENE 2 4 1011.3 - 0.0 - - - - - - -
02/08:30am 26.8 E 3 5 1011.4 - 0.0 - - - - - - -
02/08:00am 25.8 CALM 0 0 1011.2 - 0.0 - - - - - - -
02/07:30am 25.2 SW 3 5 1011.0 - 0.0 - - - - - - -
02/07:00am 25.1 SSE 4 7 1010.7 - 0.0 - - - - - - -
02/06:30am 24.3 S 4 6 1010.3 - 0.0 - - - - - - -
02/06:00am 24.0 SSW 5 6 1009.8 - 0.0 - - - - - - -
02/05:30am 23.8 SSW 5 5 1009.4 - 0.0 - - - - - - -
02/05:00am 23.6 SW 4 6 1009.1 - 0.0 - - - - - - -
02/04:30am 24.0 SW 4 5 1008.5 - 0.0 - - - - - - -
02/04:00am 24.5 CALM 0 0 1008.4 - 0.0 - - - - - - -
02/03:30am 24.6 NE 2 4 1008.2 - 0.0 - - - - - - -
02/03:00am 24.9 NE 3 4 1008.3 - 0.0 - - - - - - -
02/02:30am 25.3 NNE 3 5 1008.5 - 0.0 - - - - - - -
02/02:00am 25.5 NNE 3 4 1008.9 - 0.0 - - - - - - -
02/01:30am 25.3 NE 4 6 1009.2 - 0.0 - - - - - - -
02/01:00am 25.0 NNE 4 6 1009.5 - 0.0 - - - - - - -
02/12:30am 25.3 NE 5 8 1009.4 - 0.0 - - - - - - -
02/12:00am 25.2 NE 6 9 1009.4 - 0.0 - - - - - - -
 
Date/Time
EST
Temp

°C
Wind Pressure Rain
since 9am
mm
Weather Cloud Vis
km
Sea
Height
m
Swell
Dir
 
Speed
knots
Gust
knots
hPa Trend Height
m
Period
s
Dir
01/11:30pm 25.4 ENE 6 8 1009.8 - 0.0 - - - - - - -
01/11:00pm 25.7 ENE 4 6 1010.0 - 0.0 - - - - - - -
01/10:30pm 25.6 ENE 3 5 1010.1 - 0.0 - - - - - - -
01/10:00pm 25.5 NE 5 8 1010.1 - 0.0 - - - - - - -
01/09:30pm 25.4 NE 5 6 1010.4 - 0.0 - - - - - - -
01/09:00pm 25.3 NE 5 8 1009.7 - 0.0 - - - - - - -
01/08:30pm 25.5 NE 5 7 1009.4 - 0.0 - - - - - - -
01/08:00pm 25.6 NE 8 10 1008.8 - 0.0 - - - - - - -
01/07:30pm 25.7 NE 7 11 1008.5 - 0.0 - - - - - - -
01/07:00pm 25.8 NE 7 9 1008.4 - 0.0 - - - - - - -
01/06:30pm 26.1 NE 7 11 1008.3 - 0.0 - - - - - - -
01/06:00pm 26.8 ENE 8 11 1008.0 - 0.0 - - - - - - -
01/05:30pm 27.2 NE 9 13 1007.8 - 0.0 - - - - - - -
01/05:00pm 28.0 NE 9 12 1007.6 - 0.0 - - - - - - -
01/04:30pm 29.1 ENE 9 13 1007.4 - 0.0 - - - - - - -
01/04:00pm 29.5 ENE 11 15 1007.2 - 0.0 - - - - - - -
01/03:30pm 30.6 ENE 10 15 1007.1 - 0.0 - - - - - - -
01/03:00pm 31.0 ENE 9 13 1007.3 - 0.0 - - - - - - -
01/02:30pm 31.2 ENE 9 13 1007.7 - 0.0 - - - - - - -
01/02:00pm 32.2 NE 8 12 1007.9 - 0.0 - - - - - - -
01/01:30pm 31.9 NE 8 12 1008.2 - 0.0 - - - - - - -
01/01:00pm 31.9 NE 7 11 1008.6 - 0.0 - - - - - - -
01/12:30pm 31.8 ENE 7 11 1008.9 - 0.0 - - - - - - -
01/12:00pm 32.2 ENE 8 11 1009.3 - 0.0 - - - - - - -
01/11:30am 31.2 ENE 7 10 1009.8 - 0.0 - - - - - - -
01/11:00am 31.1 ENE 7 11 1010.2 - 0.0 - - - - - - -
01/10:30am 28.5 ENE 6 10 1010.6 - 0.0 - - - - - - -
01/10:00am 29.4 ENE 6 9 1010.7 - 0.0 - - - - - - -
01/09:30am 30.1 ENE 8 11 1010.6 - 0.0 - - - - - - -
01/09:00am 30.1 E 6 10 1010.4 - 0.0 - - - - - - -
01/08:30am 28.7 E 6 10 1010.3 - 0.0 - - - - - - -
01/08:00am 27.3 SE 6 8 1009.9 - 0.0 - - - - - - -
01/07:30am 26.2 SE 6 10 1009.6 - 0.0 - - - - - - -
01/07:00am 25.3 SE 5 8 1009.4 - 0.0 - - - - - - -
01/06:30am 24.4 SE 5 8 1009.1 - 0.0 - - - - - - -
01/06:00am 23.5 SSE 6 9 1009.0 - 0.0 - - - - - - -
01/05:30am 23.5 SSE 6 8 1008.8 - 0.0 - - - - - - -
01/05:00am 23.4 S 5 7 1008.7 - 0.0 - - - - - - -
01/04:30am 23.3 S 5 6 1008.4 - 0.0 - - - - - - -
01/04:00am 23.4 SSE 5 7 1008.2 - 0.0 - - - - - - -
01/03:30am 23.6 SSE 6 8 1008.3 - 0.0 - - - - - - -
01/03:00am 23.7 SSE 6 8 1008.3 - 0.0 - - - - - - -
01/02:30am 24.0 SE 6 8 1008.3 - 0.0 - - - - - - -
01/02:00am 24.4 SE 5 8 1008.8 - 0.0 - - - - - - -
01/01:30am 24.9 E 7 10 1009.0 - 0.0 - - - - - - -
01/01:00am 24.8 E 8 9 1009.2 - 0.0 - - - - - - -
01/12:30am 25.0 E 8 10 1009.6 - 0.0 - - - - - - -
01/12:00am 24.9 ENE 7 10 1010.0 - 0.0 - - - - - - -
 
Date/Time
EST
Temp

°C
Wind Pressure Rain
since 9am
mm
Weather Cloud Vis
km
Sea
Height
m
Swell
Dir
 
Speed
knots
Gust
knots
hPa Trend Height
m
Period
s
Dir
28/11:30pm 25.1 ENE 8 12 1010.0 - 0.0 - - - - - - -
28/11:00pm 25.5 ENE 9 14 1010.1 - 0.0 - - - - - - -
28/10:30pm 25.5 ENE 9 12 1010.3 - 0.0 - - - - - - -
28/10:00pm 25.4 ENE 9 13 1010.3 - 0.0 - - - - - - -
28/09:30pm 25.3 ENE 10 14 1010.1 - 0.0 - - - - - - -
28/09:00pm 25.5 ENE 10 14 1009.9 - 0.0 - - - - - - -
28/08:30pm 25.5 ENE 11 16 1009.7 - 0.0 - - - - - - -
28/08:00pm 25.5 ENE 11 15 1009.4 - 0.0 - - - - - - -
28/07:30pm 25.7 ENE 10 14 1009.1 - 0.0 - - - - - - -
28/07:00pm 25.8 ENE 13 16 1008.8 - 0.0 - - - - - - -
28/06:30pm 25.9 ENE 9 13 1008.5 - 0.0 - - - - - - -
28/06:00pm 26.5 ENE 10 15 1008.3 - 0.0 - - - - - - -
28/05:30pm 27.0 ENE 11 16 1008.0 - 0.0 - - - - - - -
28/05:00pm 28.1 ENE 11 14 1007.7 - 0.0 - - - - - - -
28/04:30pm 28.8 ENE 11 16 1007.4 - 0.0 - - - - - - -
28/04:00pm 29.3 ENE 12 15 1007.2 - 0.0 - - - - - - -
28/03:30pm 29.9 ENE 12 16 1007.4 - 0.0 - - - - - - -
28/03:00pm 30.3 ENE 11 15 1007.4 - 0.0 - - - - - - -
28/02:30pm 31.0 ENE 12 17 1007.4 - 0.0 - - - - - - -
28/02:00pm 30.6 ENE 11 16 1007.7 - 0.0 - - - - - - -
28/01:30pm 31.8 ENE 10 15 1008.1 - 0.0 - - - - - - -
28/01:00pm 31.9 ENE 9 13 1008.3 - 0.0 - - - - - - -
28/12:30pm 31.8 NE 8 12 1008.9 - 0.0 - - - - - - -
28/12:00pm 31.9 ENE 8 12 1009.3 - 0.0 - - - - - - -
28/11:30am 31.6 NE 8 12 1009.5 - 0.0 - - - - - - -
28/11:00am 30.3 NE 6 9 1010.0 - 0.0 - - - - - - -
28/10:30am 28.0 ENE 6 8 1010.2 - 0.0 - - - - - - -
28/10:00am 28.4 ENE 5 7 1010.2 - 0.0 - - - - - - -
28/09:30am 28.0 ENE 3 5 1010.1 - 0.0 - - - - - - -
28/09:00am 27.1 CALM 0 3 1010.1 - 0.0 - - - - - - -
28/08:30am 27.6 E 4 6 1009.8 - 0.0 - - - - - - -
28/08:00am 26.3 ESE 1 4 1009.6 - 0.0 - - - - - - -
28/07:30am 25.1 SSE 1 4 1009.2 - 0.0 - - - - - - -
28/07:00am 24.5 S 4 6 1009.1 - 0.0 - - - - - - -

Other Formats:

Comma delimited format used in spreadsheet applications
http://www.bom.gov.au/fwo/IDQ60701/IDQ60701.94380.axf

JavaScript Object Notation format (JSON) in row-major order
http://www.bom.gov.au/fwo/IDQ60701/IDQ60701.94380.json